Edward, North Carolina
Current Conditions -  °F | °C
As of 8:54 AM on Sunday 23 Nov 2014 (Local Time) from KEWN Reporting Station
Light Rain Light Rain  
Wind Chill: 52°   Ceiling: 12000
Heat Index: 52°   Visibility: 10mi
Dew Point: 47°   Wind: 3mph
Humidity: 83%   Direction: 320°NW
Pressure: 30.26"   Gusts: NA
Location:  35.32°N, 76.88°W
Report Text: KEWN 231354Z 32003KT 10SM -RA BKN120 11/08 A3026 RMK AO2 RAE14B43 SLP248 P0000 T01110083
Loading
Personal Weather Stations






























Interactive Weather Map New forecast layout! Learn more

10-Day Weather Forecast

Advertisements
Track Severe Weather on mobile